Time;durP1;ratioP1;P1;durP2;ratioP2;P2;SDS_P1;SDS_P2;PMS_P1;PMS_P2;Temp;Humidity;BMP_temperature;BMP_pressure;BME280_temperature;BME280_humidity;BME280_pressure;Samples;Min_cycle;Max_cycle;Signal;HPM_P1;HPM_P2
2021/11/17 02:28:27;;;;;;;8.98;6.18;;;;;;;12.74;65.11;102417.53;4884504;28;102667;-54
2021/11/17 02:31:24;;;;;;;8.23;5.93;;;;;;;12.73;64.94;102421.34;4905787;28;102588;-54
2021/11/17 02:34:07;;;;;;;7.55;6.10;;;;;;;12.74;64.98;102424.91;4883685;28;103946;-54
2021/11/17 02:36:52;;;;;;;11.82;7.15;;;;;;;12.73;64.94;102418.63;4900751;28;102209;-54
2021/11/17 02:39:46;;;;;;;8.88;6.25;;;;;;;12.73;64.98;102413.16;4892719;28;101926;-53
2021/11/17 02:42:35;;;;;;;8.23;6.22;;;;;;;12.73;64.94;102410.44;4891186;28;102446;-54
2021/11/17 02:45:11;;;;;;;;;;;;;;;12.74;65.01;102405.78;4892365;28;104061;-54
2021/11/17 02:47:50;;;;;;;7.88;5.93;;;;;;;12.73;64.95;102410.44;4898743;28;103724;-53
2021/11/17 02:50:33;;;;;;;9.30;6.43;;;;;;;12.72;64.96;102400.53;4898395;28;102161;-54
2021/11/17 02:53:13;;;;;;;7.97;6.03;;;;;;;12.72;64.78;102386.88;4900994;28;101963;-54
2021/11/17 02:56:01;;;;;;;8.68;6.22;;;;;;;12.72;64.95;102392.34;4896920;28;103866;-54
2021/11/17 02:58:56;;;;;;;9.00;6.25;;;;;;;12.72;64.84;102395.09;4908082;28;102090;-53
2021/11/17 03:01:52;;;;;;;7.45;5.57;;;;;;;12.72;64.96;102392.34;4888802;28;104080;-54
2021/11/17 03:04:54;;;;;;;8.63;5.90;;;;;;;12.72;64.94;102394.25;4888516;28;104308;-54
2021/11/17 03:07:33;;;;;;;7.70;6.05;;;;;;;12.72;64.94;102388.78;4880568;28;103880;-54
2021/11/17 03:10:31;;;;;;;7.65;5.80;;;;;;;12.72;64.93;102383.34;4898295;28;102279;-54
2021/11/17 03:13:11;;;;;;;7.50;6.25;;;;;;;12.72;64.98;102380.59;4899442;28;102565;-54
2021/11/17 03:15:51;;;;;;;10.35;6.95;;;;;;;12.71;64.94;102374.31;4890918;28;102064;-54
2021/11/17 03:18:40;;;;;;;9.30;6.20;;;;;;;12.71;64.74;102379.78;4888103;28;108988;-53
2021/11/17 03:21:16;;;;;;;;;;;;;;;12.71;64.93;102385.25;4891731;28;102391;-54
2021/11/17 03:23:57;;;;;;;10.80;6.70;;;;;;;12.70;64.90;102375.41;4903764;28;102589;-53
2021/11/17 03:26:46;;;;;;;7.40;5.50;;;;;;;12.70;64.77;102369.94;4902255;28;102513;-53
2021/11/17 03:29:45;;;;;;;8.13;6.00;;;;;;;12.70;65.06;102372.66;4905280;28;103936;-54
2021/11/17 03:32:32;;;;;;;8.75;6.20;;;;;;;12.70;64.90;102361.75;4901889;28;102232;-54
2021/11/17 03:35:34;;;;;;;9.38;6.32;;;;;;;12.71;64.63;102357.09;4886541;28;102068;-53
2021/11/17 03:38:22;;;;;;;8.18;5.95;;;;;;;12.70;64.98;102350.81;4843385;28;102442;-53
2021/11/17 03:41:21;;;;;;;9.23;6.15;;;;;;;12.69;65.33;102340.97;4877316;28;104178;-53
2021/11/17 03:44:16;;;;;;;6.75;4.15;;;;;;;12.70;64.83;102347.25;4871314;28;102625;-54
2021/11/17 03:47:00;;;;;;;7.28;5.57;;;;;;;12.70;64.75;102353.53;4865320;28;102430;-53
2021/11/17 03:49:41;;;;;;;7.53;6.13;;;;;;;12.70;65.07;102356.28;4877846;28;102389;-54
2021/11/17 03:52:19;;;;;;;7.88;5.97;;;;;;;12.71;64.77;102363.38;4865617;28;107883;-53
2021/11/17 03:55:18;;;;;;;8.10;5.55;;;;;;;12.70;64.81;102361.75;4879881;28;102244;-54
2021/11/17 03:57:56;;;;;;;8.97;6.13;;;;;;;12.71;64.96;102362.56;4879541;28;102190;-54
2021/11/17 04:00:59;;;;;;;8.20;6.87;;;;;;;12.69;64.88;102365.56;4862530;28;102252;-54
2021/11/17 04:03:45;;;;;;;8.57;6.35;;;;;;;12.69;64.93;102368.28;4839568;28;104387;-54
2021/11/17 04:06:25;;;;;;;10.13;6.78;;;;;;;12.69;64.79;102362.81;4865056;28;102254;-53
2021/11/17 04:09:05;;;;;;;7.93;5.97;;;;;;;12.69;64.87;102360.09;4873961;28;102685;-54
2021/11/17 04:11:55;;;;;;;9.15;6.40;;;;;;;12.68;64.93;102358.41;4878885;28;102528;-54
2021/11/17 04:14:34;;;;;;;9.18;6.35;;;;;;;12.69;64.92;102357.34;4876610;28;104077;-54
2021/11/17 04:17:13;;;;;;;7.20;5.60;;;;;;;12.70;64.89;102363.66;4878618;28;102072;-53
2021/11/17 04:19:50;;;;;;;7.65;6.05;;;;;;;12.70;64.96;102366.38;4878144;28;102297;-53
2021/11/17 04:22:47;;;;;;;7.18;5.93;;;;;;;12.69;64.70;102362.81;4863028;28;102324;-53
2021/11/17 04:25:28;;;;;;;7.40;6.00;;;;;;;12.68;64.90;102358.41;4868469;28;104126;-54
2021/11/17 04:28:10;;;;;;;8.88;5.72;;;;;;;12.69;64.78;102351.91;4865382;28;102238;-53
2021/11/17 04:31:08;;;;;;;7.32;5.88;;;;;;;12.69;64.86;102354.63;4890542;28;102256;-54
2021/11/17 04:33:51;;;;;;;7.50;5.75;;;;;;;12.69;64.74;102354.63;4890439;28;102215;-54
2021/11/17 04:36:34;;;;;;;7.43;5.43;;;;;;;12.69;64.76;102356.50;4873407;28;103930;-54
2021/11/17 04:39:31;;;;;;;8.40;6.28;;;;;;;12.69;64.85;102349.16;4898231;28;102564;-53
2021/11/17 04:42:18;;;;;;;7.95;5.60;;;;;;;12.69;64.88;102349.16;4895096;28;102417;-53
2021/11/17 04:44:59;;;;;;;8.02;6.22;;;;;;;12.69;64.84;102342.84;4905000;28;101984;-54
2021/11/17 04:47:42;;;;;;;7.78;5.43;;;;;;;12.68;64.80;102339.28;4895397;28;104147;-54
2021/11/17 04:50:34;;;;;;;9.25;6.00;;;;;;;12.68;65.33;102342.03;4897238;28;102256;-54
2021/11/17 04:53:20;;;;;;;8.45;6.22;;;;;;;12.68;64.81;102347.47;4899752;28;102085;-54
2021/11/17 04:56:07;;;;;;;6.63;5.55;;;;;;;12.68;64.73;102347.47;4894530;28;102735;-53
2021/11/17 04:58:52;;;;;;;6.80;5.63;;;;;;;12.68;64.75;102331.09;4893357;28;103713;-53
2021/11/17 05:01:46;;;;;;;7.53;6.00;;;;;;;12.68;64.57;102335.72;4886939;28;102446;-54
2021/11/17 05:04:30;;;;;;;6.70;5.40;;;;;;;12.67;64.82;102337.63;4890700;28;104396;-54
2021/11/17 05:07:09;;;;;;;7.65;5.72;;;;;;;12.67;65.12;102345.84;4898579;28;102557;-54
2021/11/17 05:09:44;;;;;;;8.90;5.93;;;;;;;12.69;64.95;102348.31;4887271;28;107973;-54
2021/11/17 05:12:37;;;;;;;7.80;6.10;;;;;;;12.69;64.99;102354.63;4895773;28;102037;-54
2021/11/17 05:15:17;;;;;;;7.95;6.05;;;;;;;12.69;64.84;102353.78;4898637;28;102240;-54
2021/11/17 05:17:52;;;;;;;8.10;5.75;;;;;;;12.68;65.05;102354.84;4893900;28;102312;-54
2021/11/17 05:20:32;;;;;;;7.60;5.68;;;;;;;12.68;64.84;102352.94;4894297;28;104006;-53
2021/11/17 05:23:15;;;;;;;7.32;5.50;;;;;;;12.69;64.98;102353.78;4886378;28;102507;-54
2021/11/17 05:26:00;;;;;;;8.77;6.53;;;;;;;12.69;64.66;102354.63;4892127;28;101919;-53
2021/11/17 05:28:57;;;;;;;6.82;5.45;;;;;;;12.69;64.74;102361.97;4891922;28;102309;-54
2021/11/17 05:31:40;;;;;;;7.53;5.88;;;;;;;12.69;64.70;102365.56;4874609;28;107847;-54
2021/11/17 05:34:22;;;;;;;7.95;6.13;;;;;;;12.69;64.84;102357.34;4896846;28;102191;-54
2021/11/17 05:37:01;;;;;;;9.43;5.95;;;;;;;12.70;64.95;102350.81;4893177;28;102392;-54
2021/11/17 05:39:44;;;;;;;8.45;5.90;;;;;;;12.69;64.83;102337.38;4897680;28;102479;-54
2021/11/17 05:42:26;;;;;;;8.43;6.22;;;;;;;12.69;64.79;102340.97;4896000;28;103899;-54
2021/11/17 05:45:05;;;;;;;7.88;5.97;;;;;;;12.70;64.79;102339.88;4894836;28;102515;-53
2021/11/17 05:47:46;;;;;;;8.05;5.82;;;;;;;12.70;64.87;102342.63;4892785;28;103078;-53
2021/11/17 05:50:38;;;;;;;8.45;6.07;;;;;;;12.70;65.24;102334.41;4892964;28;102233;-54
2021/11/17 05:53:22;;;;;;;7.38;5.85;;;;;;;12.70;64.93;102339.88;4881319;28;108127;-54
2021/11/17 05:56:06;;;;;;;7.65;5.55;;;;;;;12.70;64.90;102337.16;4895735;28;102396;-54
2021/11/17 05:58:46;;;;;;;6.78;5.80;;;;;;;12.71;64.85;102349.72;4895949;28;102197;-53
2021/11/17 06:01:33;;;;;;;7.78;5.97;;;;;;;12.70;64.89;102345.34;4894609;28;102421;-55
2021/11/17 06:04:01;;;;;;;7.55;5.80;;;;;;;12.71;64.82;102340.72;4900442;28;103399;-53
2021/11/17 06:06:27;;;;;;;7.30;6.00;;;;;;;12.71;64.85;102332.50;4892359;28;102460;-54
2021/11/17 06:08:56;;;;;;;7.20;5.85;;;;;;;12.72;64.80;102331.44;4895328;28;102348;-53
2021/11/17 06:11:26;;;;;;;8.15;5.90;;;;;;;12.70;65.06;102323.50;4906683;28;102183;-54
2021/11/17 06:13:54;;;;;;;7.90;5.60;;;;;;;12.72;65.04;102321.31;4896681;28;103937;-54
2021/11/17 06:16:21;;;;;;;8.68;5.90;;;;;;;12.72;64.94;102331.44;4896253;28;102467;-54
2021/11/17 06:18:48;;;;;;;8.43;6.05;;;;;;;12.72;64.91;102324.06;4895522;28;102268;-54
2021/11/17 06:21:16;;;;;;;7.45;5.88;;;;;;;12.72;65.02;102329.53;4898172;28;102652;-54
2021/11/17 06:23:47;;;;;;;7.30;5.65;;;;;;;12.74;65.05;102326.56;4895554;28;103883;-54
2021/11/17 06:26:19;;;;;;;8.57;6.18;;;;;;;12.72;64.97;102324.06;4908169;28;103996;-54
2021/11/17 06:28:52;;;;;;;7.72;6.15;;;;;;;12.73;65.01;102330.38;4893772;28;102239;-54
2021/11/17 06:31:19;;;;;;;9.02;5.70;;;;;;;12.75;64.83;102334.50;4899086;28;102082;-53
2021/11/17 06:33:47;;;;;;;7.80;6.10;;;;;;;12.74;64.93;102330.13;4902874;28;103948;-54
2021/11/17 06:36:13;;;;;;;7.05;5.97;;;;;;;12.75;64.95;102331.75;4899650;28;102281;-54
2021/11/17 06:38:40;;;;;;;9.63;6.63;;;;;;;12.75;64.88;102331.75;4898763;28;102287;-54
2021/11/17 06:41:06;;;;;;;8.13;6.22;;;;;;;12.74;65.16;102327.38;4902024;28;102193;-54
2021/11/17 06:43:32;;;;;;;11.05;6.68;;;;;;;12.76;65.04;102327.13;4898560;28;103983;-53
2021/11/17 06:46:01;;;;;;;6.80;6.10;;;;;;;12.77;65.20;102327.97;4899510;28;102132;-54
2021/11/17 06:48:29;;;;;;;;;;;;;;;12.77;64.86;102317.88;4904829;28;102595;-53
2021/11/17 06:50:57;;;;;;;9.68;6.55;;;;;;;12.76;65.05;102313.47;4899981;28;102644;-54
2021/11/17 06:53:24;;;;;;;6.72;5.97;;;;;;;12.77;64.86;102317.06;4899643;28;108030;-54
2021/11/17 06:55:51;;;;;;;9.35;6.03;;;;;;;12.78;64.95;102314.06;4896707;28;102294;-54
2021/11/17 06:58:18;;;;;;;7.68;6.40;;;;;;;12.77;65.11;102312.41;4906564;28;102021;-53
2021/11/17 07:00:48;;;;;;;11.88;6.60;;;;;;;12.78;65.06;102313.25;4897990;28;102389;-53
2021/11/17 07:03:16;;;;;;;9.20;6.68;;;;;;;12.77;64.98;102315.16;4905409;28;103834;-54
2021/11/17 07:05:44;;;;;;;10.07;6.70;;;;;;;12.78;64.99;102307.78;4900396;28;103637;-54
2021/11/17 07:08:10;;;;;;;8.27;6.05;;;;;;;12.78;65.01;102316.78;4898376;28;102186;-54
2021/11/17 07:10:37;;;;;;;9.68;6.10;;;;;;;12.78;65.01;102321.44;4902749;28;102517;-54
2021/11/17 07:13:05;;;;;;;8.23;6.43;;;;;;;12.78;65.19;102313.25;4891941;28;103125;-54
2021/11/17 07:15:34;;;;;;;8.65;7.13;;;;;;;12.76;65.47;102310.72;4899740;28;102308;-53
2021/11/17 07:18:01;;;;;;;8.68;6.72;;;;;;;12.76;65.21;102318.94;4897570;28;102261;-53
2021/11/17 07:20:29;;;;;;;8.00;6.57;;;;;;;12.77;65.11;102311.59;4896203;28;102617;-54
2021/11/17 07:22:55;;;;;;;8.70;6.33;;;;;;;12.76;65.10;102316.19;4895910;28;104015;-53
2021/11/17 07:25:23;;;;;;;9.05;6.57;;;;;;;12.76;65.10;102316.19;4899860;28;102622;-54
2021/11/17 07:27:51;;;;;;;8.13;6.57;;;;;;;12.76;64.96;102308.00;4896043;28;102679;-54
2021/11/17 07:30:21;;;;;;;8.57;6.45;;;;;;;12.75;65.05;102309.91;4898364;28;102170;-53
2021/11/17 07:32:49;;;;;;;8.75;6.95;;;;;;;12.76;64.95;102310.72;4898056;28;103911;-54
2021/11/17 07:35:16;;;;;;;10.63;7.13;;;;;;;12.75;64.91;102303.63;4896169;28;104052;-54
2021/11/17 07:37:44;;;;;;;8.35;6.45;;;;;;;12.75;65.02;102326.31;4895299;28;102378;-54
2021/11/17 07:40:12;;;;;;;9.52;6.88;;;;;;;12.77;65.04;102322.53;4894933;28;102846;-53
2021/11/17 07:42:40;;;;;;;8.55;6.55;;;;;;;12.75;65.04;102320.84;4892657;28;103716;-54
2021/11/17 07:45:08;;;;;;;8.88;6.60;;;;;;;12.77;65.04;102325.25;4888476;28;102385;-54
2021/11/17 07:47:36;;;;;;;9.38;6.70;;;;;;;12.76;65.08;102316.19;4896027;28;102197;-54
2021/11/17 07:50:05;;;;;;;9.63;6.88;;;;;;;12.77;65.18;102327.97;4889822;28;102498;-53
2021/11/17 07:52:32;;;;;;;10.02;6.80;;;;;;;12.77;64.95;102327.97;4886800;28;104093;-54
2021/11/17 07:55:00;;;;;;;8.93;6.78;;;;;;;12.77;65.14;102320.59;4893793;28;102526;-53
2021/11/17 07:57:27;;;;;;;9.38;6.70;;;;;;;12.77;64.97;102317.06;4889423;28;102799;-53
2021/11/17 07:59:53;;;;;;;9.70;7.45;;;;;;;12.77;65.26;102317.06;4894855;28;102315;-54
2021/11/17 08:02:20;;;;;;;8.88;7.70;;;;;;;12.76;64.99;102313.47;4897108;28;103983;-55
2021/11/17 08:04:47;;;;;;;8.82;7.15;;;;;;;12.77;64.98;102312.41;4895547;28;102557;-53
2021/11/17 08:07:16;;;;;;;10.93;6.57;;;;;;;12.75;65.31;102304.44;4899100;28;103525;-54
2021/11/17 08:09:43;;;;;;;9.02;7.13;;;;;;;12.75;64.95;102307.19;4900206;28;102317;-54
2021/11/17 08:12:11;;;;;;;9.00;7.07;;;;;;;12.77;65.04;102300.66;4897842;28;103924;-55
2021/11/17 08:14:37;;;;;;;10.23;6.88;;;;;;;12.77;65.05;102306.94;4896081;28;102797;-53
2021/11/17 08:17:06;;;;;;;12.17;7.80;;;;;;;12.76;64.99;102299.81;4891338;28;102419;-53
2021/11/17 08:19:32;;;;;;;8.95;6.93;;;;;;;12.75;65.14;102309.91;4901577;28;102298;-53
2021/11/17 08:22:06;;;;;;;8.50;6.82;;;;;;;12.75;64.94;102303.63;4889893;28;104248;-53
2021/11/17 08:24:32;;;;;;;11.07;7.03;;;;;;;12.77;65.00;102308.84;4899393;28;102491;-54
2021/11/17 08:26:59;;;;;;;9.48;7.60;;;;;;;12.75;64.96;102298.97;4900036;28;102355;-53
2021/11/17 08:29:27;;;;;;;14.70;7.25;;;;;;;12.75;64.96;102298.16;4904583;28;105287;-53
2021/11/17 08:31:54;;;;;;;10.02;7.03;;;;;;;12.76;64.93;102291.59;4905814;28;103025;-53
2021/11/17 08:34:20;;;;;;;10.25;7.20;;;;;;;12.75;64.94;102298.16;4903324;28;102240;-53
2021/11/17 08:36:46;;;;;;;37.03;9.23;;;;;;;12.75;65.13;102293.53;4889384;28;102629;-53
2021/11/17 08:39:16;;;;;;;11.07;6.97;;;;;;;12.75;65.05;102288.06;4898706;28;102419;-53
2021/11/17 08:41:43;;;;;;;9.85;7.43;;;;;;;12.75;64.88;102287.22;4895333;28;104590;-54
2021/11/17 08:44:10;;;;;;;10.75;7.95;;;;;;;12.75;65.12;102284.50;4895542;28;102877;-53
2021/11/17 08:46:38;;;;;;;10.80;7.75;;;;;;;12.76;65.07;102283.41;4893582;28;102846;-53
2021/11/17 08:49:05;;;;;;;9.77;7.70;;;;;;;12.75;64.99;102288.06;4896588;28;102722;-53
2021/11/17 08:51:32;;;;;;;10.07;7.70;;;;;;;12.75;65.00;102288.06;4897933;28;104014;-53
2021/11/17 08:54:00;;;;;;;13.48;8.32;;;;;;;12.75;64.89;102282.59;4892031;28;102617;-53
2021/11/17 08:56:28;;;;;;;10.25;7.32;;;;;;;12.75;64.79;102285.31;4883980;28;102325;-53
2021/11/17 08:58:54;;;;;;;9.40;7.55;;;;;;;12.76;64.79;102277.94;4885027;28;102203;-53
2021/11/17 09:01:21;;;;;;;12.82;7.88;;;;;;;12.74;64.99;102269.19;4883682;28;104175;-53
2021/11/17 09:03:49;;;;;;;10.63;7.70;;;;;;;12.75;64.85;102282.59;4893215;28;102235;-53
2021/11/17 09:06:15;;;;;;;11.40;8.07;;;;;;;12.74;64.92;102280.13;4892856;28;102089;-53
2021/11/17 09:08:42;;;;;;;11.35;7.72;;;;;;;12.75;64.89;102279.84;4893616;28;102606;-54
2021/11/17 09:11:12;;;;;;;13.60;8.05;;;;;;;12.76;65.13;102286.16;4888624;28;103908;-53
2021/11/17 09:13:39;;;;;;;9.77;7.90;;;;;;;12.75;64.91;102271.66;4892739;28;102183;-53
2021/11/17 09:16:07;;;;;;;9.57;8.07;;;;;;;12.75;65.02;102274.41;4887028;28;102788;-53
2021/11/17 09:18:36;;;;;;;9.93;7.38;;;;;;;12.75;64.95;102277.13;4889097;28;102805;-53
2021/11/17 09:21:06;;;;;;;9.75;8.13;;;;;;;12.77;64.96;102274.16;4890341;28;103982;-53
2021/11/17 09:23:33;;;;;;;11.48;8.50;;;;;;;12.75;64.86;102262.66;4881558;28;102899;-53
2021/11/17 09:26:02;;;;;;;10.57;8.10;;;;;;;12.77;64.84;102267.88;4885386;28;104641;-53
2021/11/17 09:28:30;;;;;;;;;;;;;;;12.77;65.10;102265.97;4890485;28;104502;-53
2021/11/17 09:30:57;;;;;;;11.13;8.00;;;;;;;12.77;64.99;102274.16;4886811;28;103910;-53
2021/11/17 09:33:25;;;;;;;11.35;7.95;;;;;;;12.78;64.75;102269.53;4892284;28;102288;-53
2021/11/17 09:35:52;;;;;;;12.32;7.88;;;;;;;12.78;64.98;102269.53;4891710;28;102316;-53
2021/11/17 09:38:21;;;;;;;13.15;8.23;;;;;;;12.78;64.82;102269.53;4886859;28;102368;-53
2021/11/17 09:40:52;;;;;;;12.98;8.73;;;;;;;12.78;64.89;102256.69;4888854;28;103999;-53
2021/11/17 09:43:21;;;;;;;13.68;7.97;;;;;;;12.79;64.61;102254.78;4889173;28;102211;-53
2021/11/17 09:45:49;;;;;;;11.70;8.80;;;;;;;12.79;64.97;102250.13;4889620;28;102282;-53
2021/11/17 09:48:18;;;;;;;11.73;7.75;;;;;;;12.80;64.89;102246.31;4896540;28;102324;-53
2021/11/17 09:50:46;;;;;;;;;;;;;;;12.81;64.94;102244.44;4895719;28;103979;-53
2021/11/17 09:53:18;;;;;;;12.88;8.25;;;;;;;12.81;65.03;102238.97;4888366;28;102535;-53
2021/11/17 09:55:50;;;;;;;13.05;8.85;;;;;;;12.81;65.04;102236.25;4890642;28;102722;-53
2021/11/17 09:58:21;;;;;;;15.43;8.93;;;;;;;12.81;65.18;102241.72;4894947;28;102166;-53
2021/11/17 10:00:52;;;;;;;10.38;8.32;;;;;;;12.82;65.32;102237.91;4889042;28;103892;-53
2021/11/17 10:03:28;;;;;;;10.80;7.88;;;;;;;12.83;64.90;102234.91;4891986;28;101989;-53
2021/11/17 10:14:10;;;;;;;10.65;8.05;;;;;;;12.84;64.97;102227.53;4907708;28;102138;-53
2021/11/17 10:16:43;;;;;;;11.07;7.97;;;;;;;12.84;64.97;102227.53;4897016;28;102146;-53
2021/11/17 10:19:16;;;;;;;13.82;8.50;;;;;;;12.83;65.02;102217.69;4900112;28;102495;-53
2021/11/17 10:21:43;;;;;;;14.38;8.63;;;;;;;12.84;65.18;102219.34;4891489;28;103889;-53
2021/11/17 10:24:14;;;;;;;12.13;8.70;;;;;;;12.85;65.06;102213.63;4900701;28;102480;-53
2021/11/17 10:26:48;;;;;;;11.00;8.45;;;;;;;12.86;65.00;102217.19;4897335;28;102345;-53
2021/11/17 10:29:27;;;;;;;13.68;8.73;;;;;;;12.85;65.00;102207.34;4886361;28;102248;-53
2021/11/17 10:31:57;;;;;;;11.82;8.48;;;;;;;12.86;65.07;102200.78;4902179;28;103874;-53
2021/11/17 10:34:28;;;;;;;13.00;8.63;;;;;;;12.86;65.29;102198.06;4904552;28;102192;-53
2021/11/17 10:37:03;;;;;;;11.38;8.05;;;;;;;12.86;65.14;102201.63;4895860;28;102293;-53
2021/11/17 10:39:44;;;;;;;10.68;7.90;;;;;;;12.86;65.00;102200.78;4896723;28;102453;-53
2021/11/17 10:42:25;;;;;;;11.13;8.40;;;;;;;12.86;65.22;102200.78;4896283;28;104079;-53
2021/11/17 10:44:54;;;;;;;13.20;7.95;;;;;;;12.86;65.02;102195.34;4895738;28;102452;-53
2021/11/17 10:47:31;;;;;;;11.52;8.88;;;;;;;12.87;65.18;102191.50;4898820;28;102257;-53
2021/11/17 10:50:11;;;;;;;10.52;8.15;;;;;;;12.87;65.08;102186.06;4901574;28;102207;-53
2021/11/17 10:52:42;;;;;;;12.45;8.18;;;;;;;12.86;65.27;102195.34;4886624;28;107817;-53
2021/11/17 10:55:16;;;;;;;13.15;8.65;;;;;;;12.85;65.14;102193.69;4899766;28;101975;-53
2021/11/17 10:57:44;;;;;;;10.35;7.75;;;;;;;12.87;65.01;102188.78;4898393;28;102610;-53
2021/11/17 11:00:13;;;;;;;11.45;8.38;;;;;;;12.86;64.98;102178.94;4900761;28;102767;-53
2021/11/17 11:02:42;;;;;;;9.43;7.40;;;;;;;12.86;65.07;102178.94;4897095;28;103070;-53
2021/11/17 11:05:14;;;;;;;10.77;7.95;;;;;;;12.86;64.99;102178.94;4899428;28;102310;-53
2021/11/17 11:07:45;;;;;;;13.65;8.65;;;;;;;12.86;64.98;102181.66;4896578;28;102161;-53
2021/11/17 11:10:18;;;;;;;11.20;8.25;;;;;;;12.85;65.31;102178.13;4898527;28;105585;-53
2021/11/17 11:12:47;;;;;;;10.93;8.43;;;;;;;12.85;65.28;102175.38;4888343;28;105293;-53
2021/11/17 11:15:19;;;;;;;11.15;8.40;;;;;;;12.85;65.05;102174.56;4893074;28;102555;-53
2021/11/17 11:18:10;;;;;;;11.52;8.32;;;;;;;12.85;65.11;102169.09;4897139;28;102447;-53
2021/11/17 11:20:46;;;;;;;11.73;7.80;;;;;;;12.85;64.99;102177.28;4897128;28;102398;-53
2021/11/17 11:23:31;;;;;;;13.07;8.50;;;;;;;12.86;65.11;102165.28;4898120;28;104183;-53
2021/11/17 11:26:08;;;;;;;12.38;7.63;;;;;;;12.86;65.12;102173.47;4898522;28;102281;-53
2021/11/17 11:28:39;;;;;;;12.18;8.85;;;;;;;12.85;65.13;102159.00;4898241;28;102183;-53
2021/11/17 11:31:29;;;;;;;8.73;7.15;;;;;;;12.86;65.09;102154.34;4905640;28;102475;-53
2021/11/17 11:34:43;;;;;;;10.60;7.60;;;;;;;12.86;64.99;102157.09;4888842;28;107527;-53
2021/11/17 11:37:13;;;;;;;11.73;7.75;;;;;;;12.86;65.28;102163.38;4869264;28;102793;-53
2021/11/17 11:39:48;;;;;;;10.70;7.95;;;;;;;12.86;65.09;102160.63;4895850;28;102704;-53
2021/11/17 11:42:25;;;;;;;10.73;7.80;;;;;;;12.84;65.21;102151.88;4893136;28;102816;-53
2021/11/17 11:44:56;;;;;;;9.73;7.57;;;;;;;12.86;65.30;102148.88;4892128;28;104017;-53
2021/11/17 11:47:40;;;;;;;12.25;8.35;;;;;;;12.86;65.16;102146.16;4899559;28;102151;-53
2021/11/17 11:50:50;;;;;;;12.80;8.20;;;;;;;12.85;65.08;102139.88;4883361;28;102250;-53
2021/11/17 11:53:20;;;;;;;9.32;7.30;;;;;;;12.85;65.06;102145.34;4887593;28;102425;-53
2021/11/17 11:56:01;;;;;;;9.82;7.53;;;;;;;12.85;65.04;102134.41;4887734;28;104685;-53
2021/11/17 11:58:48;;;;;;;10.30;7.47;;;;;;;12.85;65.18;102139.03;4893897;28;102396;-53
2021/11/17 12:01:23;;;;;;;13.23;7.22;;;;;;;12.86;65.08;102140.69;4891007;28;102354;-53
2021/11/17 12:03:54;;;;;;;11.23;7.68;;;;;;;12.85;65.06;102139.03;4898486;28;102978;-53
2021/11/17 12:06:29;;;;;;;10.82;8.25;;;;;;;12.85;65.19;102125.38;4896358;28;104090;-53
2021/11/17 12:09:07;;;;;;;9.75;8.27;;;;;;;12.84;65.02;102137.38;4896172;28;104560;-53
2021/11/17 12:11:34;;;;;;;10.38;7.45;;;;;;;12.84;65.10;102127.28;4888407;28;102428;-53
2021/11/17 12:14:05;;;;;;;8.75;6.80;;;;;;;12.85;65.10;102128.94;4892578;28;102285;-54
2021/11/17 12:16:49;;;;;;;8.38;6.75;;;;;;;12.85;65.06;102122.66;4891913;28;104149;-53
2021/11/17 12:19:30;;;;;;;9.00;6.85;;;;;;;12.84;65.14;102120.97;4894193;28;102801;-53
2021/11/17 12:21:59;;;;;;;10.98;8.07;;;;;;;12.84;65.19;102115.50;4896390;28;103104;-53
2021/11/17 12:24:30;;;;;;;8.20;7.20;;;;;;;12.85;65.44;102117.19;4893204;28;102338;-53
2021/11/17 12:27:01;;;;;;;10.05;6.93;;;;;;;12.84;64.98;102120.97;4893845;28;108095;-53
2021/11/17 12:29:33;;;;;;;8.98;6.97;;;;;;;12.83;65.01;102119.34;4894478;28;102166;-53
2021/11/17 12:32:07;;;;;;;8.50;6.63;;;;;;;12.84;65.17;102115.50;4896542;28;102297;-53
2021/11/17 12:34:39;;;;;;;8.20;7.10;;;;;;;12.85;65.12;102117.19;4888380;28;103041;-53
2021/11/17 12:37:10;;;;;;;9.10;6.82;;;;;;;12.85;65.06;102111.72;4892492;28;103836;-53
2021/11/17 12:39:48;;;;;;;11.02;6.38;;;;;;;12.84;65.31;102107.31;4888121;28;102328;-53
2021/11/17 12:42:33;;;;;;;7.90;7.10;;;;;;;12.85;65.28;102106.25;4890973;28;102981;-53
2021/11/17 12:45:14;;;;;;;10.48;7.20;;;;;;;12.84;65.07;102116.38;4896225;28;102683;-53
2021/11/17 12:47:44;;;;;;;7.82;6.50;;;;;;;12.84;65.13;102110.91;4893713;28;104099;-53
2021/11/17 12:50:20;;;;;;;10.32;6.80;;;;;;;12.86;65.25;102113.38;4896848;28;102606;-53
2021/11/17 12:53:08;;;;;;;9.48;6.85;;;;;;;12.85;65.25;102106.25;4889530;28;102378;-53
2021/11/17 12:55:42;;;;;;;10.73;7.03;;;;;;;12.84;65.21;102116.38;4889827;28;102438;-53
2021/11/17 12:58:11;;;;;;;10.68;6.68;;;;;;;12.85;65.05;102111.72;4891378;28;103702;-53
2021/11/17 13:00:46;;;;;;;8.75;6.55;;;;;;;12.85;65.11;102111.72;4884474;28;102152;-54
2021/11/17 13:03:32;;;;;;;9.10;6.85;;;;;;;12.85;65.17;102106.25;4891187;28;102253;-53
2021/11/17 13:06:21;;;;;;;11.20;6.82;;;;;;;12.84;65.21;102107.31;4897537;28;102753;-53
2021/11/17 13:09:06;;;;;;;8.30;6.28;;;;;;;12.83;65.19;102109.22;4887041;28;104006;-53
2021/11/17 13:11:33;;;;;;;9.60;7.22;;;;;;;12.84;65.18;102115.50;4898276;28;103616;-53
2021/11/17 13:13:59;;;;;;;11.15;6.57;;;;;;;12.82;65.13;102110.31;4892763;28;102544;-53
2021/11/17 13:16:34;;;;;;;8.30;6.57;;;;;;;12.84;65.14;102110.03;4894463;28;102357;-53
2021/11/17 13:19:04;;;;;;;9.20;6.72;;;;;;;12.83;65.16;102114.69;4901188;28;105840;-53
2021/11/17 13:21:35;;;;;;;9.43;6.18;;;;;;;12.82;65.27;102104.84;4895893;28;102553;-53
2021/11/17 13:24:12;;;;;;;7.85;6.18;;;;;;;12.83;65.14;102111.13;4899213;28;102166;-53
2021/11/17 13:26:41;;;;;;;7.10;5.97;;;;;;;12.82;65.09;102106.75;4884866;28;102585;-53
2021/11/17 13:29:23;;;;;;;10.53;6.50;;;;;;;12.83;65.09;102113.88;4888123;28;104026;-53
2021/11/17 13:31:52;;;;;;;8.88;6.68;;;;;;;12.81;65.14;102105.94;4892583;28;102342;-53
2021/11/17 13:34:35;;;;;;;5.60;4.40;;;;;;;12.82;65.29;102106.75;4890561;28;102284;-53
2021/11/17 13:37:23;;;;;;;7.50;6.75;;;;;;;12.82;65.16;102104.03;4896455;28;102247;-53
2021/11/17 13:39:52;;;;;;;8.18;5.95;;;;;;;12.81;65.07;102111.41;4893551;28;103941;-54
2021/11/17 13:42:19;;;;;;;9.00;6.18;;;;;;;12.80;65.34;102107.00;4896086;28;102807;-53
2021/11/17 13:44:46;;;;;;;8.07;6.38;;;;;;;12.81;65.10;102105.13;4891634;28;102932;-53
2021/11/17 13:47:14;;;;;;;8.95;5.95;;;;;;;12.81;65.30;102097.75;4896678;28;102295;-53
2021/11/17 13:49:43;;;;;;;8.73;6.40;;;;;;;12.81;65.05;102105.13;4890923;28;104063;-53
2021/11/17 13:52:13;;;;;;;11.65;6.50;;;;;;;12.81;65.14;102108.66;4898245;28;102958;-53
2021/11/17 13:54:40;;;;;;;10.98;7.07;;;;;;;12.80;65.43;102103.44;4878220;28;102391;-53
2021/11/17 13:57:08;;;;;;;9.23;6.93;;;;;;;12.81;65.18;102099.66;4886782;28;102358;-53
2021/11/17 13:59:36;;;;;;;11.55;6.30;;;;;;;12.82;65.47;102095.84;4893276;28;103903;-53
2021/11/17 14:02:03;;;;;;;8.57;6.15;;;;;;;12.81;64.99;102105.13;4896221;28;103970;-53
2021/11/17 14:04:30;;;;;;;7.28;6.10;;;;;;;12.80;65.18;102098.78;4891435;28;102195;-53
2021/11/17 14:06:58;;;;;;;9.23;6.25;;;;;;;12.81;65.22;102103.22;4891913;28;103225;-53
2021/11/17 14:09:40;;;;;;;7.78;6.10;;;;;;;12.81;65.19;102096.91;4902166;28;104011;-53
2021/11/17 14:12:11;;;;;;;7.45;6.35;;;;;;;12.79;65.16;102107.25;4893587;28;102554;-55
2021/11/17 14:14:38;;;;;;;8.73;6.53;;;;;;;12.80;65.16;102107.00;4891979;28;102071;-53
2021/11/17 14:17:05;;;;;;;10.73;6.25;;;;;;;12.81;65.12;102105.13;4886621;28;102415;-53
2021/11/17 14:19:32;;;;;;;8.88;6.28;;;;;;;12.81;65.27;102110.59;4896784;28;103923;-53
2021/11/17 14:22:01;;;;;;;8.30;6.15;;;;;;;12.81;65.41;102105.13;4892872;28;102698;-53
2021/11/17 14:24:28;;;;;;;9.10;6.80;;;;;;;12.81;65.37;102096.91;4896507;28;103000;-53
2021/11/17 14:26:55;;;;;;;9.95;7.22;;;;;;;12.81;65.20;102105.13;4886572;28;102606;-53